createdAt,value
2022-12-12T00:00:51.418Z,-3.91
2022-12-12T00:03:19.372Z,-3.81
2022-12-12T00:05:47.554Z,-3.77
2022-12-12T00:08:15.347Z,-3.74
2022-12-12T00:10:43.163Z,-3.72
2022-12-12T00:13:10.935Z,-3.71
2022-12-12T00:15:39.140Z,-3.87
2022-12-12T00:18:08.375Z,-3.72
2022-12-12T00:20:36.181Z,-3.89
2022-12-12T00:23:03.995Z,-3.96
2022-12-12T00:25:31.702Z,-4.13
2022-12-12T00:28:00.022Z,-4.27
2022-12-12T00:30:27.941Z,-4.16
2022-12-12T00:32:55.704Z,-4.07
2022-12-12T00:35:25.196Z,-3.95
2022-12-12T00:37:52.966Z,-3.94
2022-12-12T00:40:20.687Z,-3.94
2022-12-12T00:42:48.433Z,-3.86
2022-12-12T00:45:16.328Z,-3.88
2022-12-12T00:47:44.144Z,-3.80
2022-12-12T00:50:12.006Z,-3.78
2022-12-12T00:52:41.903Z,-3.84
2022-12-12T00:55:12.891Z,-3.93
2022-12-12T00:57:40.863Z,-3.92
2022-12-12T01:00:11.086Z,-4.00
2022-12-12T01:02:38.930Z,-3.88
2022-12-12T01:05:07.606Z,-3.98
2022-12-12T01:07:35.479Z,-3.90
2022-12-12T01:10:05.243Z,-3.85
2022-12-12T01:12:33.349Z,-3.83
2022-12-12T01:15:01.205Z,-4.08
2022-12-12T01:17:29.885Z,-3.81
2022-12-12T01:19:57.619Z,-3.87
2022-12-12T01:22:25.726Z,-3.93
2022-12-12T01:24:56.856Z,-3.85
2022-12-12T01:27:25.976Z,-4.18
2022-12-12T01:29:55.966Z,-4.21
2022-12-12T01:32:23.752Z,-4.30
2022-12-12T01:34:51.511Z,-4.21
2022-12-12T01:37:19.342Z,-4.03
2022-12-12T01:39:47.366Z,-4.06
2022-12-12T01:42:16.768Z,-4.02
2022-12-12T01:44:47.890Z,-4.20
2022-12-12T01:47:17.198Z,-4.09
2022-12-12T01:49:50.888Z,-4.20
2022-12-12T01:52:22.201Z,-4.43
2022-12-12T01:54:55.350Z,-4.25
2022-12-12T01:57:29.123Z,-4.14
2022-12-12T01:59:59.191Z,-4.14
2022-12-12T02:02:27.298Z,-4.03
2022-12-12T02:04:55.901Z,-3.90
2022-12-12T02:07:23.707Z,-3.91
2022-12-12T02:09:52.084Z,-3.88
2022-12-12T02:12:20.143Z,-4.07
2022-12-12T02:14:52.939Z,-3.98
2022-12-12T02:17:47.987Z,-4.10
2022-12-12T02:20:55.213Z,-3.98
2022-12-12T02:23:47.487Z,-4.14
2022-12-12T02:26:43.663Z,-4.15
2022-12-12T02:29:51.443Z,-3.93
2022-12-12T02:32:28.082Z,-3.94
2022-12-12T02:35:05.801Z,-3.84
2022-12-12T02:37:41.332Z,-3.86
2022-12-12T02:40:16.688Z,-3.79
2022-12-12T02:42:48.216Z,-4.01
2022-12-12T02:45:21.424Z,-4.13
2022-12-12T02:47:56.588Z,-4.05
2022-12-12T02:50:27.194Z,-3.87
2022-12-12T02:52:55.060Z,-3.91
2022-12-12T02:55:23.188Z,-3.97
2022-12-12T02:57:52.644Z,-3.85
2022-12-12T03:00:21.607Z,-3.94
2022-12-12T03:03:41.162Z,-3.83
2022-12-12T03:06:41.219Z,-3.99
2022-12-12T03:09:18.646Z,-3.94
2022-12-12T03:11:56.687Z,-3.94
2022-12-12T03:14:30.453Z,-3.78
2022-12-12T03:17:06.765Z,-3.84
2022-12-12T03:19:43.007Z,-3.93
2022-12-12T03:22:19.992Z,-3.86
2022-12-12T03:24:53.434Z,-3.87
2022-12-12T03:27:27.029Z,-3.86
2022-12-12T03:29:58.784Z,-3.92
2022-12-12T03:32:32.892Z,-3.89
2022-12-12T03:35:08.252Z,-4.10
2022-12-12T03:37:38.900Z,-4.03
2022-12-12T03:40:11.207Z,-4.10
2022-12-12T03:42:43.278Z,-4.01
2022-12-12T03:45:15.585Z,-3.97
2022-12-12T03:47:51.803Z,-4.06
2022-12-12T03:50:23.919Z,-4.16
2022-12-12T03:52:58.214Z,-4.16
2022-12-12T03:55:30.419Z,-4.12
2022-12-12T03:58:02.961Z,-4.19
2022-12-12T04:00:37.467Z,-4.26
2022-12-12T04:03:16.250Z,-4.29
2022-12-12T04:06:06.573Z,-4.43
2022-12-12T04:08:35.482Z,-4.31
2022-12-12T04:11:25.790Z,-4.24
2022-12-12T04:14:06.436Z,-4.29
2022-12-12T04:16:39.780Z,-4.20
2022-12-12T04:19:34.825Z,-4.31
2022-12-12T04:22:27.211Z,-4.28
2022-12-12T04:25:02.905Z,-4.61
2022-12-12T04:27:35.581Z,-4.65
2022-12-12T04:30:06.032Z,-4.74
2022-12-12T04:32:38.891Z,-4.73
2022-12-12T04:35:11.612Z,-4.50
2022-12-12T04:37:45.077Z,-4.49
2022-12-12T04:40:15.879Z,-4.57
2022-12-12T04:42:47.185Z,-4.47
2022-12-12T04:45:19.472Z,-4.45
2022-12-12T04:47:51.281Z,-4.47
2022-12-12T04:50:20.885Z,-4.40
2022-12-12T04:52:52.910Z,-4.49
2022-12-12T04:55:24.453Z,-4.40
2022-12-12T04:57:55.139Z,-4.60
2022-12-12T05:00:24.262Z,-4.62
2022-12-12T05:02:59.408Z,-4.56
2022-12-12T05:05:33.618Z,-4.44
2022-12-12T05:08:07.893Z,-4.46
2022-12-12T05:10:42.408Z,-4.32
2022-12-12T05:13:16.918Z,-4.35
2022-12-12T05:15:45.675Z,-4.38
2022-12-12T05:18:14.058Z,-4.29
2022-12-12T05:20:42.038Z,-4.36
2022-12-12T05:23:11.163Z,-4.23
2022-12-12T05:25:39.283Z,-4.19
2022-12-12T05:28:07.154Z,-4.50
2022-12-12T05:30:35.214Z,-4.50
2022-12-12T05:33:02.977Z,-4.62
2022-12-12T05:35:31.057Z,-4.68
2022-12-12T05:37:58.839Z,-4.36
2022-12-12T05:40:27.989Z,-4.39
2022-12-12T05:42:56.066Z,-4.47
2022-12-12T05:45:24.310Z,-4.21
2022-12-12T05:47:52.044Z,-4.24
2022-12-12T05:50:20.043Z,-4.16
2022-12-12T05:52:48.180Z,-4.23
2022-12-12T05:55:16.186Z,-4.20
2022-12-12T05:57:45.462Z,-4.23
2022-12-12T06:00:14.160Z,-4.16
2022-12-12T06:02:42.270Z,-4.19
2022-12-12T06:05:11.149Z,-4.06
2022-12-12T06:07:39.370Z,-4.08
2022-12-12T06:10:08.457Z,-4.08
2022-12-12T06:12:36.196Z,-4.13
2022-12-12T06:15:05.961Z,-4.13
2022-12-12T06:17:33.945Z,-4.16
2022-12-12T06:20:01.801Z,-4.04
2022-12-12T06:22:29.654Z,-4.00
2022-12-12T06:24:57.371Z,-4.07
2022-12-12T06:27:25.078Z,-4.10
2022-12-12T06:29:52.978Z,-4.19
2022-12-12T06:32:22.075Z,-4.14
2022-12-12T06:34:50.239Z,-3.86
2022-12-12T06:37:18.187Z,-4.20
2022-12-12T06:39:46.162Z,-4.06
2022-12-12T06:42:14.111Z,-4.18
2022-12-12T06:44:41.819Z,-4.25
2022-12-12T06:47:09.623Z,-4.11
2022-12-12T06:49:39.009Z,-4.29
2022-12-12T06:52:07.135Z,-4.12
2022-12-12T06:54:34.965Z,-4.30
2022-12-12T06:57:02.723Z,-4.17
2022-12-12T06:59:30.885Z,-4.02
2022-12-12T07:01:58.814Z,-3.94
2022-12-12T07:04:26.940Z,-4.05
2022-12-12T07:06:56.205Z,-4.14
2022-12-12T07:09:24.137Z,-4.04
2022-12-12T07:11:51.906Z,-4.09
2022-12-12T07:14:19.727Z,-4.07
2022-12-12T07:16:47.476Z,-4.05
2022-12-12T07:19:15.257Z,-4.04
2022-12-12T07:21:42.952Z,-3.91
2022-12-12T07:24:12.754Z,-4.00
2022-12-12T07:26:40.536Z,-4.03
2022-12-12T07:29:08.268Z,-4.06
2022-12-12T07:31:36.165Z,-4.06
2022-12-12T07:34:03.998Z,-3.87
2022-12-12T07:36:31.774Z,-3.68
2022-12-12T07:38:59.909Z,-3.57
2022-12-12T07:41:29.031Z,-3.54
2022-12-12T07:43:56.849Z,-3.56
2022-12-12T07:46:26.000Z,-3.64
2022-12-12T07:48:54.390Z,-3.62
2022-12-12T07:51:23.064Z,-3.67
2022-12-12T07:53:50.919Z,-3.61
2022-12-12T07:56:21.015Z,-3.51
2022-12-12T07:58:51.165Z,-3.47
2022-12-12T08:01:21.002Z,-3.40
2022-12-12T08:03:49.535Z,-3.26
2022-12-12T08:06:18.563Z,-3.33
2022-12-12T08:08:47.157Z,-3.17
2022-12-12T08:11:18.087Z,-3.09
2022-12-12T08:13:46.395Z,-3.10
2022-12-12T08:16:17.898Z,-2.99
2022-12-12T08:18:46.866Z,-3.06
2022-12-12T08:21:21.493Z,-2.97
2022-12-12T08:23:53.003Z,-3.01
2022-12-12T08:26:21.071Z,-3.08
2022-12-12T08:28:49.275Z,-2.94
2022-12-12T08:31:19.368Z,-2.94
2022-12-12T08:33:48.045Z,-2.82
2022-12-12T08:36:17.374Z,-2.83
2022-12-12T08:38:45.566Z,-2.73
2022-12-12T08:41:14.102Z,-2.78
2022-12-12T08:43:43.402Z,-2.73
2022-12-12T08:46:17.464Z,-2.55
2022-12-12T08:48:48.213Z,-2.75
2022-12-12T08:51:17.032Z,-2.58
2022-12-12T08:53:45.765Z,-2.46
2022-12-12T08:56:13.628Z,-2.51
2022-12-12T08:58:41.453Z,-2.42
2022-12-12T09:01:12.180Z,-2.46
2022-12-12T09:03:40.229Z,-2.36
2022-12-12T09:06:10.214Z,-2.35
2022-12-12T09:08:38.367Z,-2.47
2022-12-12T09:11:06.812Z,-2.28
2022-12-12T09:13:34.572Z,-2.17
2022-12-12T09:16:02.370Z,-2.13
2022-12-12T09:18:30.508Z,-2.03
2022-12-12T09:20:59.516Z,-1.87
2022-12-12T09:23:29.509Z,-2.07
2022-12-12T09:25:57.325Z,-1.98
2022-12-12T09:28:26.755Z,-1.78
2022-12-12T09:30:55.102Z,-1.87
2022-12-12T09:33:22.859Z,-1.96
2022-12-12T09:35:58.530Z,-2.05
2022-12-12T09:38:27.183Z,-2.28
2022-12-12T09:40:59.837Z,-2.27
2022-12-12T09:43:30.082Z,-2.09
2022-12-12T09:45:59.704Z,-2.07
2022-12-12T09:48:36.638Z,-2.06
2022-12-12T09:51:04.774Z,-1.97
2022-12-12T09:53:32.654Z,-2.06
2022-12-12T09:56:12.063Z,-2.06
2022-12-12T09:58:52.487Z,-2.16
2022-12-12T10:01:31.609Z,-1.96
2022-12-12T10:04:11.476Z,-1.98
2022-12-12T10:06:48.026Z,-2.01
2022-12-12T10:09:41.414Z,-2.17
2022-12-12T10:12:15.190Z,-2.20
2022-12-12T10:14:46.334Z,-2.03
2022-12-12T10:17:18.110Z,-2.11
2022-12-12T10:19:50.357Z,-2.24
2022-12-12T10:22:27.199Z,-2.04
2022-12-12T10:25:00.170Z,-2.18
2022-12-12T10:27:30.749Z,-2.13
2022-12-12T10:30:07.762Z,-1.99
2022-12-12T10:32:45.893Z,-1.86
2022-12-12T10:35:26.469Z,-2.12
2022-12-12T10:38:06.384Z,-2.10
2022-12-12T10:40:46.655Z,-2.00
2022-12-12T10:43:22.358Z,-1.96
2022-12-12T10:46:17.746Z,-1.98
2022-12-12T10:48:47.113Z,-1.92
2022-12-12T10:51:18.591Z,-2.05
2022-12-12T10:53:46.362Z,-1.99
2022-12-12T10:56:21.150Z,-2.02
2022-12-12T10:58:55.922Z,-2.05
2022-12-12T11:02:00.231Z,-2.11
2022-12-12T11:04:17.117Z,-2.28
2022-12-12T11:06:48.282Z,-2.35
2022-12-12T11:09:19.530Z,-2.22
2022-12-12T11:11:59.570Z,-2.07
2022-12-12T11:14:34.755Z,-1.89
2022-12-12T11:17:02.928Z,-1.84
2022-12-12T11:19:38.471Z,-1.87
2022-12-12T11:22:06.494Z,-1.80
2022-12-12T11:24:36.261Z,-1.63
2022-12-12T11:27:06.517Z,-1.98
2022-12-12T11:29:43.685Z,-1.87
2022-12-12T11:32:15.801Z,-1.49
2022-12-12T11:34:48.056Z,-1.67
2022-12-12T11:37:18.268Z,-1.44
2022-12-12T11:39:49.823Z,-1.57
2022-12-12T11:42:25.588Z,-1.94
2022-12-12T11:45:04.857Z,-1.92
2022-12-12T11:47:40.815Z,-2.00
2022-12-12T11:50:20.923Z,-2.26
2022-12-12T11:52:49.699Z,-2.14
2022-12-12T11:55:20.538Z,-1.93
2022-12-12T11:58:08.628Z,-1.84
2022-12-12T12:00:45.832Z,-1.98
2022-12-12T12:03:27.943Z,-1.92
2022-12-12T12:06:05.734Z,-1.91
2022-12-12T12:08:46.365Z,-1.86
2022-12-12T12:11:21.030Z,-1.70
2022-12-12T12:14:08.355Z,-1.64
2022-12-12T12:16:47.182Z,-1.70
2022-12-12T12:19:23.774Z,-1.87
2022-12-12T12:22:04.538Z,-1.99
2022-12-12T12:25:01.082Z,-2.10
2022-12-12T12:27:38.632Z,-1.96
2022-12-12T12:30:29.560Z,-2.12
2022-12-12T12:33:25.694Z,-2.04
2022-12-12T12:36:03.380Z,-1.81
2022-12-12T12:38:51.170Z,-1.85
2022-12-12T12:41:36.356Z,-2.13
2022-12-12T12:44:20.075Z,-1.92
2022-12-12T12:46:53.527Z,-2.07
2022-12-12T12:49:27.513Z,-2.41
2022-12-12T12:52:00.612Z,-2.33
2022-12-12T12:54:32.263Z,-2.16
2022-12-12T12:57:06.148Z,-1.90
2022-12-12T12:59:39.869Z,-1.96
2022-12-12T13:02:21.127Z,-2.07
2022-12-12T13:05:03.531Z,-2.15
2022-12-12T13:07:41.375Z,-2.02
2022-12-12T13:10:18.572Z,-2.07
2022-12-12T13:12:53.668Z,-1.93
2022-12-12T13:15:26.961Z,-1.91
2022-12-12T13:18:01.377Z,-1.77
2022-12-12T13:20:34.709Z,-1.86
2022-12-12T13:23:17.135Z,-1.91
2022-12-12T13:25:54.135Z,-1.95
2022-12-12T13:28:27.672Z,-2.12
2022-12-12T13:31:30.396Z,-2.25
2022-12-12T13:34:04.234Z,-2.51
2022-12-12T13:36:38.210Z,-2.30
2022-12-12T13:39:09.123Z,-2.23
2022-12-12T13:41:56.265Z,-2.24
2022-12-12T13:44:38.573Z,-2.18
2022-12-12T13:47:14.004Z,-2.28
2022-12-12T13:49:48.960Z,-2.28
2022-12-12T13:52:26.467Z,-2.30
2022-12-12T13:55:10.641Z,-2.31
2022-12-12T13:58:17.738Z,-2.41
2022-12-12T14:00:45.681Z,-2.40
2022-12-12T14:03:32.234Z,-2.53
2022-12-12T14:06:12.211Z,-2.33
2022-12-12T14:08:50.345Z,-2.19
2022-12-12T14:11:38.979Z,-2.12
2022-12-12T14:14:21.120Z,-2.36
2022-12-12T14:16:54.623Z,-2.24
2022-12-12T14:19:29.259Z,-2.01
2022-12-12T14:21:57.465Z,-2.12
2022-12-12T14:25:03.723Z,-2.22
2022-12-12T14:28:14.080Z,-2.14
2022-12-12T14:30:47.440Z,-2.13
2022-12-12T14:33:42.715Z,-2.31
2022-12-12T14:36:30.423Z,-2.35
2022-12-12T14:39:05.458Z,-2.38
2022-12-12T14:41:39.958Z,-2.42
2022-12-12T14:44:36.779Z,-2.37
2022-12-12T14:47:08.526Z,-2.50
2022-12-12T14:49:36.395Z,-2.49
2022-12-12T14:52:04.678Z,-2.36
2022-12-12T14:54:33.212Z,-2.55
2022-12-12T14:57:02.631Z,-2.44
2022-12-12T14:59:33.989Z,-2.47
2022-12-12T15:02:07.882Z,-2.56
2022-12-12T15:04:39.475Z,-2.66
2022-12-12T15:07:08.182Z,-2.61
2022-12-12T15:09:37.736Z,-2.60
2022-12-12T15:12:18.408Z,-2.54
2022-12-12T15:14:55.953Z,-2.74
2022-12-12T15:17:28.535Z,-2.56
2022-12-12T15:19:58.867Z,-2.71
2022-12-12T15:22:28.649Z,-2.78
2022-12-12T15:24:58.274Z,-2.76
2022-12-12T15:27:31.142Z,-2.91
2022-12-12T15:30:00.050Z,-2.89
2022-12-12T15:32:29.428Z,-2.88
2022-12-12T15:35:03.838Z,-2.91
2022-12-12T15:37:32.734Z,-3.07
2022-12-12T15:40:09.650Z,-2.82
2022-12-12T15:42:40.050Z,-2.95
2022-12-12T15:45:10.033Z,-2.85
2022-12-12T15:47:37.844Z,-2.86
2022-12-12T15:50:13.697Z,-3.08
2022-12-12T15:52:41.961Z,-3.08
2022-12-12T15:55:21.258Z,-3.06
2022-12-12T15:57:52.741Z,-2.91
2022-12-12T16:00:35.579Z,-3.05
2022-12-12T16:03:07.152Z,-3.02
2022-12-12T16:05:37.714Z,-3.00
2022-12-12T16:08:32.142Z,-2.99
2022-12-12T16:11:02.315Z,-3.13
2022-12-12T16:13:39.483Z,-3.14
2022-12-12T16:16:34.602Z,-3.37
2022-12-12T16:19:02.972Z,-3.64
2022-12-12T16:21:31.475Z,-3.67
2022-12-12T16:24:12.535Z,-3.86
2022-12-12T16:26:40.359Z,-3.87
2022-12-12T16:29:09.487Z,-3.98
2022-12-12T16:31:37.676Z,-3.79
2022-12-12T16:34:05.840Z,-3.80
2022-12-12T16:36:39.897Z,-3.83
2022-12-12T16:39:10.687Z,-3.81
2022-12-12T16:41:38.618Z,-3.97
2022-12-12T16:44:06.697Z,-4.09
2022-12-12T16:46:35.769Z,-4.19
2022-12-12T16:49:04.704Z,-4.24
2022-12-12T16:51:37.845Z,-4.37
2022-12-12T16:54:05.710Z,-4.43
2022-12-12T16:56:33.919Z,-4.33
2022-12-12T16:59:01.807Z,-4.37
2022-12-12T17:01:33.317Z,-4.35
2022-12-12T17:04:05.298Z,-4.42
2022-12-12T17:06:33.165Z,-4.47
2022-12-12T17:09:00.909Z,-4.34
2022-12-12T17:11:28.648Z,-4.29
2022-12-12T17:13:56.780Z,-4.37
2022-12-12T17:16:27.947Z,-4.47
2022-12-12T17:18:56.581Z,-4.47
2022-12-12T17:21:25.782Z,-4.56
2022-12-12T17:23:53.525Z,-4.57
2022-12-12T17:26:21.291Z,-4.69
2022-12-12T17:28:49.101Z,-4.64
2022-12-12T17:31:16.938Z,-4.60
2022-12-12T17:33:50.564Z,-4.72
2022-12-12T17:36:19.826Z,-4.49
2022-12-12T17:38:50.059Z,-4.66
2022-12-12T17:41:17.861Z,-4.67
2022-12-12T17:43:49.319Z,-4.68
2022-12-12T17:46:20.309Z,-4.81
2022-12-12T17:48:48.929Z,-4.88
2022-12-12T17:51:18.814Z,-4.93
2022-12-12T17:53:47.112Z,-4.99
2022-12-12T17:56:17.780Z,-5.05
2022-12-12T17:58:48.177Z,-4.97
2022-12-12T18:01:18.080Z,-5.01
2022-12-12T18:03:46.904Z,-4.99
2022-12-12T18:06:15.884Z,-5.00
2022-12-12T18:08:44.525Z,-5.01
2022-12-12T18:11:15.028Z,-5.02
2022-12-12T18:13:44.253Z,-5.07
2022-12-12T18:16:13.792Z,-5.22
2022-12-12T18:18:42.392Z,-5.25
2022-12-12T18:21:12.917Z,-5.23
2022-12-12T18:23:44.440Z,-5.41
2022-12-12T18:26:21.593Z,-5.27
2022-12-12T18:28:55.334Z,-5.20
2022-12-12T18:31:23.645Z,-5.19
2022-12-12T18:33:51.572Z,-5.14
2022-12-12T18:36:21.074Z,-5.17
2022-12-12T18:38:49.530Z,-5.16
2022-12-12T18:41:18.460Z,-5.22
2022-12-12T18:43:46.258Z,-5.22
2022-12-12T18:46:17.243Z,-5.30
2022-12-12T18:48:47.337Z,-5.18
2022-12-12T18:51:17.912Z,-5.24
2022-12-12T18:53:48.459Z,-5.20
2022-12-12T18:56:18.654Z,-5.20
2022-12-12T18:58:46.488Z,-5.29
2022-12-12T19:01:18.592Z,-5.29
2022-12-12T19:03:49.322Z,-5.31
2022-12-12T19:06:19.020Z,-5.29
2022-12-12T19:08:47.010Z,-5.22
2022-12-12T19:11:15.830Z,-5.23
2022-12-12T19:13:44.828Z,-5.36
2022-12-12T19:16:16.052Z,-5.25
2022-12-12T19:18:44.662Z,-5.22
2022-12-12T19:21:15.599Z,-5.23
2022-12-12T19:23:44.292Z,-5.15
2022-12-12T19:26:14.534Z,-5.11
2022-12-12T19:28:42.384Z,-5.17
2022-12-12T19:31:11.872Z,-5.27
2022-12-12T19:33:41.479Z,-5.32
2022-12-12T19:36:10.844Z,-5.28
2022-12-12T19:38:38.555Z,-5.22
2022-12-12T19:41:07.712Z,-5.22
2022-12-12T19:43:35.855Z,-5.23
2022-12-12T19:46:06.440Z,-5.23
2022-12-12T19:48:34.616Z,-5.21
2022-12-12T19:51:09.542Z,-5.16
2022-12-12T19:53:38.596Z,-5.08
2022-12-12T19:56:07.942Z,-5.20
2022-12-12T19:58:38.535Z,-5.25
2022-12-12T20:01:08.862Z,-5.23
2022-12-12T20:03:37.374Z,-5.24
2022-12-12T20:06:09.040Z,-5.27
2022-12-12T20:08:38.413Z,-5.31
2022-12-12T20:11:08.325Z,-5.37
2022-12-12T20:13:36.723Z,-5.38
2022-12-12T20:16:06.303Z,-5.50
2022-12-12T20:18:34.506Z,-5.55
2022-12-12T20:21:03.583Z,-5.59
2022-12-12T20:23:34.571Z,-5.70
2022-12-12T20:26:04.023Z,-5.63
2022-12-12T20:28:32.021Z,-5.61
2022-12-12T20:31:08.366Z,-5.54
2022-12-12T20:33:37.260Z,-5.52
2022-12-12T20:36:07.337Z,-5.46
2022-12-12T20:38:38.031Z,-5.50
2022-12-12T20:41:10.678Z,-5.44
2022-12-12T20:43:38.787Z,-5.41
2022-12-12T20:46:10.967Z,-5.34
2022-12-12T20:48:39.230Z,-5.45
2022-12-12T20:51:24.764Z,-5.33
2022-12-12T20:53:58.499Z,-5.35
2022-12-12T20:56:26.301Z,-5.22
2022-12-12T20:58:56.032Z,-5.21
2022-12-12T21:01:25.895Z,-5.19
2022-12-12T21:03:53.667Z,-5.17
2022-12-12T21:06:22.856Z,-5.18
2022-12-12T21:08:51.631Z,-5.12
2022-12-12T21:11:23.839Z,-5.30
2022-12-12T21:13:52.173Z,-5.33
2022-12-12T21:16:22.775Z,-5.34
2022-12-12T21:18:53.295Z,-5.46
2022-12-12T21:21:21.823Z,-5.51
2022-12-12T21:23:49.892Z,-5.65
2022-12-12T21:26:28.461Z,-5.57
2022-12-12T21:28:58.028Z,-5.62
2022-12-12T21:31:28.003Z,-5.66
2022-12-12T21:33:56.442Z,-5.71
2022-12-12T21:36:25.685Z,-5.71
2022-12-12T21:38:55.737Z,-5.67
2022-12-12T21:41:26.030Z,-5.79
2022-12-12T21:43:53.912Z,-5.59
2022-12-12T21:46:23.499Z,-5.63
2022-12-12T21:49:12.424Z,-5.64
2022-12-12T21:51:41.559Z,-5.63
2022-12-12T21:54:11.445Z,-5.68
2022-12-12T21:56:41.168Z,-5.71
2022-12-12T21:59:09.409Z,-5.88
2022-12-12T22:01:37.148Z,-5.79
2022-12-12T22:04:05.253Z,-5.79
2022-12-12T22:06:35.243Z,-5.83
2022-12-12T22:09:05.815Z,-5.87
2022-12-12T22:11:41.050Z,-5.81
2022-12-12T22:14:18.598Z,-5.82
2022-12-12T22:16:46.580Z,-5.93
2022-12-12T22:19:15.699Z,-5.88
2022-12-12T22:21:46.093Z,-5.86
2022-12-12T22:24:14.231Z,-5.94
2022-12-12T22:26:44.261Z,-5.95
2022-12-12T22:29:14.724Z,-5.96
2022-12-12T22:31:44.891Z,-5.89
2022-12-12T22:34:15.483Z,-5.90
2022-12-12T22:36:44.267Z,-5.92
2022-12-12T22:39:16.217Z,-5.83
2022-12-12T22:41:44.008Z,-5.97
2022-12-12T22:44:15.954Z,-6.00
2022-12-12T22:46:46.317Z,-6.14
2022-12-12T22:49:15.750Z,-6.08
2022-12-12T22:51:44.279Z,-6.22
2022-12-12T22:54:12.739Z,-6.00
2022-12-12T22:56:42.063Z,-6.04
2022-12-12T22:59:11.932Z,-6.17
2022-12-12T23:01:40.719Z,-6.27
2022-12-12T23:04:11.116Z,-6.24
2022-12-12T23:06:38.946Z,-6.17
2022-12-12T23:09:09.241Z,-6.13
2022-12-12T23:11:37.667Z,-6.15
2022-12-12T23:14:08.338Z,-6.16
2022-12-12T23:16:37.087Z,-6.14
2022-12-12T23:19:06.306Z,-6.06
2022-12-12T23:21:36.997Z,-5.99
2022-12-12T23:24:06.042Z,-5.98
2022-12-12T23:26:36.886Z,-5.93
2022-12-12T23:29:07.069Z,-6.39
2022-12-12T23:31:37.092Z,-6.31
2022-12-12T23:34:07.078Z,-6.31
2022-12-12T23:36:36.270Z,-6.24
2022-12-12T23:39:07.543Z,-6.12
2022-12-12T23:41:36.595Z,-6.14
2022-12-12T23:44:05.083Z,-6.15
2022-12-12T23:46:33.247Z,-6.12
2022-12-12T23:49:03.837Z,-5.97
2022-12-12T23:51:33.715Z,-5.94
2022-12-12T23:54:04.563Z,-5.87
2022-12-12T23:56:32.573Z,-5.86
2022-12-12T23:59:01.019Z,-6.04
